sensor_id;sensor_type;location;lat;lon;timestamp;pressure;altitude;pressure_sealevel;temperature;humidity
24762;BME280;12865;51.934;10.330;2023-02-19T00:00:15;99040.16;;;8.53;100.00
24762;BME280;12865;51.934;10.330;2023-02-19T00:03:01;99034.13;;;8.51;100.00
24762;BME280;12865;51.934;10.330;2023-02-19T00:05:48;99028.94;;;8.50;100.00
24762;BME280;12865;51.934;10.330;2023-02-19T00:08:35;99013.97;;;8.49;100.00
24762;BME280;12865;51.934;10.330;2023-02-19T00:11:23;98995.25;;;8.50;100.00
24762;BME280;12865;51.934;10.330;2023-02-19T00:14:13;98989.69;;;8.53;100.00
24762;BME280;12865;51.934;10.330;2023-02-19T00:16:59;98969.13;;;8.55;100.00
24762;BME280;12865;51.934;10.330;2023-02-19T00:19:45;98965.06;;;8.51;100.00
24762;BME280;12865;51.934;10.330;2023-02-19T00:22:30;98965.06;;;8.51;100.00
24762;BME280;12865;51.934;10.330;2023-02-19T00:25:16;98967.59;;;8.53;100.00
24762;BME280;12865;51.934;10.330;2023-02-19T00:28:02;98968.69;;;8.50;100.00
24762;BME280;12865;51.934;10.330;2023-02-19T00:30:48;98958.78;;;8.52;100.00
24762;BME280;12865;51.934;10.330;2023-02-19T00:33:34;98972.50;;;8.57;100.00
24762;BME280;12865;51.934;10.330;2023-02-19T00:36:20;98961.88;;;8.57;100.00
24762;BME280;12865;51.934;10.330;2023-02-19T00:39:07;98965.78;;;8.53;100.00
24762;BME280;12865;51.934;10.330;2023-02-19T00:41:52;98962.41;;;8.51;100.00
24762;BME280;12865;51.934;10.330;2023-02-19T00:44:38;98948.16;;;8.52;100.00
24762;BME280;12865;51.934;10.330;2023-02-19T00:47:24;98953.34;;;8.54;100.00
24762;BME280;12865;51.934;10.330;2023-02-19T00:50:09;98951.53;;;8.54;100.00
24762;BME280;12865;51.934;10.330;2023-02-19T00:52:55;98954.19;;;8.54;100.00
24762;BME280;12865;51.934;10.330;2023-02-19T00:55:41;98951.53;;;8.54;100.00
24762;BME280;12865;51.934;10.330;2023-02-19T00:58:27;98946.47;;;8.51;100.00
24762;BME280;12865;51.934;10.330;2023-02-19T01:01:13;98937.53;;;8.52;100.00
24762;BME280;12865;51.934;10.330;2023-02-19T01:03:59;98931.66;;;8.58;100.00
24762;BME280;12865;51.934;10.330;2023-02-19T01:06:45;98935.13;;;8.49;100.00
24762;BME280;12865;51.934;10.330;2023-02-19T01:09:33;98933.44;;;8.48;100.00
24762;BME280;12865;51.934;10.330;2023-02-19T01:12:18;98925.63;;;8.47;100.00
24762;BME280;12865;51.934;10.330;2023-02-19T01:15:04;98902.56;;;8.47;100.00
24762;BME280;12865;51.934;10.330;2023-02-19T01:17:50;98905.91;;;8.49;100.00
24762;BME280;12865;51.934;10.330;2023-02-19T01:20:43;98893.59;;;8.48;100.00
24762;BME280;12865;51.934;10.330;2023-02-19T01:23:29;98906.44;;;8.43;100.00
24762;BME280;12865;51.934;10.330;2023-02-19T01:26:17;98899.75;;;8.49;100.00
24762;BME280;12865;51.934;10.330;2023-02-19T01:29:03;98892.78;;;8.48;100.00
24762;BME280;12865;51.934;10.330;2023-02-19T01:31:49;98875.00;;;8.48;100.00
24762;BME280;12865;51.934;10.330;2023-02-19T01:34:34;98869.56;;;8.50;100.00
24762;BME280;12865;51.934;10.330;2023-02-19T01:37:20;98868.31;;;8.54;100.00
24762;BME280;12865;51.934;10.330;2023-02-19T01:40:06;98869.59;;;8.59;100.00
24762;BME280;12865;51.934;10.330;2023-02-19T01:42:52;98872.78;;;8.53;100.00
24762;BME280;12865;51.934;10.330;2023-02-19T01:45:42;98856.41;;;8.48;100.00
24762;BME280;12865;51.934;10.330;2023-02-19T01:51:16;98844.69;;;8.51;100.00
24762;BME280;12865;51.934;10.330;2023-02-19T01:54:04;98854.19;;;8.53;100.00
24762;BME280;12865;51.934;10.330;2023-02-19T01:56:53;98853.63;;;8.50;100.00
24762;BME280;12865;51.934;10.330;2023-02-19T01:59:40;98845.78;;;8.48;100.00
24762;BME280;12865;51.934;10.330;2023-02-19T02:02:26;98840.47;;;8.48;100.00
24762;BME280;12865;51.934;10.330;2023-02-19T02:05:21;98834.75;;;8.53;100.00
24762;BME280;12865;51.934;10.330;2023-02-19T02:08:09;98835.59;;;8.53;100.00
24762;BME280;12865;51.934;10.330;2023-02-19T02:11:15;98837.53;;;8.51;100.00
24762;BME280;12865;51.934;10.330;2023-02-19T02:14:02;98836.84;;;8.49;100.00
24762;BME280;12865;51.934;10.330;2023-02-19T02:16:53;98828.88;;;8.49;100.00
24762;BME280;12865;51.934;10.330;2023-02-19T02:22:58;98824.97;;;8.53;100.00
24762;BME280;12865;51.934;10.330;2023-02-19T02:25:58;98820.09;;;8.58;100.00
24762;BME280;12865;51.934;10.330;2023-02-19T02:31:55;98821.22;;;8.65;100.00
24762;BME280;12865;51.934;10.330;2023-02-19T02:34:47;98826.41;;;8.67;100.00
24762;BME280;12865;51.934;10.330;2023-02-19T02:37:37;98819.25;;;8.77;100.00
24762;BME280;12865;51.934;10.330;2023-02-19T02:40:25;98831.00;;;8.65;100.00
24762;BME280;12865;51.934;10.330;2023-02-19T02:43:12;98837.88;;;8.68;100.00
24762;BME280;12865;51.934;10.330;2023-02-19T02:45:58;98833.81;;;8.73;100.00
24762;BME280;12865;51.934;10.330;2023-02-19T02:48:47;98842.50;;;8.75;100.00
24762;BME280;12865;51.934;10.330;2023-02-19T02:51:40;98855.09;;;8.83;100.00
24762;BME280;12865;51.934;10.330;2023-02-19T02:54:31;98863.34;;;8.80;100.00
24762;BME280;12865;51.934;10.330;2023-02-19T02:57:36;98873.41;;;8.86;100.00
24762;BME280;12865;51.934;10.330;2023-02-19T03:00:23;98877.91;;;8.85;100.00
24762;BME280;12865;51.934;10.330;2023-02-19T03:03:09;98871.03;;;8.73;100.00
24762;BME280;12865;51.934;10.330;2023-02-19T03:06:00;98862.50;;;8.79;100.00
24762;BME280;12865;51.934;10.330;2023-02-19T03:08:52;98856.75;;;8.84;100.00
24762;BME280;12865;51.934;10.330;2023-02-19T03:11:41;98844.44;;;8.73;100.00
24762;BME280;12865;51.934;10.330;2023-02-19T03:14:51;98852.13;;;8.76;100.00
24762;BME280;12865;51.934;10.330;2023-02-19T03:18:00;98850.31;;;8.77;100.00
24762;BME280;12865;51.934;10.330;2023-02-19T03:21:07;98851.88;;;8.89;100.00
24762;BME280;12865;51.934;10.330;2023-02-19T03:23:55;98853.00;;;8.86;100.00
24762;BME280;12865;51.934;10.330;2023-02-19T03:27:03;98852.56;;;8.91;100.00
24762;BME280;12865;51.934;10.330;2023-02-19T03:29:50;98852.19;;;8.95;100.00
24762;BME280;12865;51.934;10.330;2023-02-19T03:32:44;98851.03;;;8.88;100.00
24762;BME280;12865;51.934;10.330;2023-02-19T03:35:34;98855.94;;;8.93;100.00
24762;BME280;12865;51.934;10.330;2023-02-19T03:38:39;98843.50;;;8.93;100.00
24762;BME280;12865;51.934;10.330;2023-02-19T03:44:45;98850.91;;;8.99;100.00
24762;BME280;12865;51.934;10.330;2023-02-19T03:47:49;98846.84;;;9.05;100.00
24762;BME280;12865;51.934;10.330;2023-02-19T03:50:45;98847.41;;;8.99;100.00
24762;BME280;12865;51.934;10.330;2023-02-19T04:00:39;98853.28;;;8.93;100.00
24762;BME280;12865;51.934;10.330;2023-02-19T04:03:32;98858.16;;;8.97;100.00
24762;BME280;12865;51.934;10.330;2023-02-19T04:06:26;98856.22;;;8.99;100.00
24762;BME280;12865;51.934;10.330;2023-02-19T04:09:13;98857.06;;;9.00;100.00
24762;BME280;12865;51.934;10.330;2023-02-19T04:12:00;98859.00;;;8.98;100.00
24762;BME280;12865;51.934;10.330;2023-02-19T04:14:53;98863.38;;;9.09;100.00
24762;BME280;12865;51.934;10.330;2023-02-19T04:17:48;98866.31;;;9.05;100.00
24762;BME280;12865;51.934;10.330;2023-02-19T04:20:41;98872.59;;;9.04;100.00
24762;BME280;12865;51.934;10.330;2023-02-19T04:23:29;98879.75;;;9.04;100.00
24762;BME280;12865;51.934;10.330;2023-02-19T04:26:20;98877.50;;;9.09;100.00
24762;BME280;12865;51.934;10.330;2023-02-19T04:29:07;98878.75;;;9.05;100.00
24762;BME280;12865;51.934;10.330;2023-02-19T04:31:52;98888.84;;;9.01;100.00
24762;BME280;12865;51.934;10.330;2023-02-19T04:34:38;98894.59;;;8.97;100.00
24762;BME280;12865;51.934;10.330;2023-02-19T04:37:24;98896.25;;;8.98;100.00
24762;BME280;12865;51.934;10.330;2023-02-19T04:40:09;98892.75;;;9.07;100.00
24762;BME280;12865;51.934;10.330;2023-02-19T04:42:55;98889.13;;;9.08;100.00
24762;BME280;12865;51.934;10.330;2023-02-19T04:45:41;98899.47;;;9.11;100.00
24762;BME280;12865;51.934;10.330;2023-02-19T04:48:27;98895.72;;;9.04;100.00
24762;BME280;12865;51.934;10.330;2023-02-19T04:51:13;98898.91;;;8.98;100.00
24762;BME280;12865;51.934;10.330;2023-02-19T04:53:58;98904.66;;;9.03;100.00
24762;BME280;12865;51.934;10.330;2023-02-19T04:56:44;98902.25;;;9.00;100.00
24762;BME280;12865;51.934;10.330;2023-02-19T04:59:30;98906.88;;;8.98;100.00
24762;BME280;12865;51.934;10.330;2023-02-19T05:02:15;98910.09;;;9.11;100.00
24762;BME280;12865;51.934;10.330;2023-02-19T05:05:01;98908.00;;;8.95;100.00
24762;BME280;12865;51.934;10.330;2023-02-19T05:07:47;98915.72;;;9.08;100.00
24762;BME280;12865;51.934;10.330;2023-02-19T05:10:32;98936.28;;;9.06;100.00
24762;BME280;12865;51.934;10.330;2023-02-19T05:13:19;98938.69;;;8.69;100.00
24762;BME280;12865;51.934;10.330;2023-02-19T05:16:13;98944.25;;;8.56;100.00
24762;BME280;12865;51.934;10.330;2023-02-19T05:19:00;98958.81;;;8.32;100.00
24762;BME280;12865;51.934;10.330;2023-02-19T05:21:46;98965.53;;;8.15;100.00
24762;BME280;12865;51.934;10.330;2023-02-19T05:24:31;98969.25;;;8.03;100.00
24762;BME280;12865;51.934;10.330;2023-02-19T05:27:17;98972.78;;;7.92;100.00
24762;BME280;12865;51.934;10.330;2023-02-19T05:30:03;98981.50;;;7.62;100.00
24762;BME280;12865;51.934;10.330;2023-02-19T05:32:48;98990.69;;;7.58;100.00
24762;BME280;12865;51.934;10.330;2023-02-19T05:35:42;98994.34;;;7.46;100.00
24762;BME280;12865;51.934;10.330;2023-02-19T05:38:28;99013.31;;;7.41;100.00
24762;BME280;12865;51.934;10.330;2023-02-19T05:41:19;99028.59;;;7.38;100.00
24762;BME280;12865;51.934;10.330;2023-02-19T05:44:05;99048.56;;;6.99;100.00
24762;BME280;12865;51.934;10.330;2023-02-19T05:46:51;99056.38;;;7.00;100.00
24762;BME280;12865;51.934;10.330;2023-02-19T05:49:36;99048.91;;;6.83;100.00
24762;BME280;12865;51.934;10.330;2023-02-19T05:52:22;99066.25;;;6.76;100.00
24762;BME280;12865;51.934;10.330;2023-02-19T05:55:08;99088.88;;;6.69;100.00
24762;BME280;12865;51.934;10.330;2023-02-19T05:57:54;99090.47;;;6.72;100.00
24762;BME280;12865;51.934;10.330;2023-02-19T06:00:40;99116.53;;;6.54;100.00
24762;BME280;12865;51.934;10.330;2023-02-19T06:03:25;99102.94;;;6.47;100.00
24762;BME280;12865;51.934;10.330;2023-02-19T06:06:16;99114.16;;;6.51;100.00
24762;BME280;12865;51.934;10.330;2023-02-19T06:09:04;99117.38;;;6.43;100.00
24762;BME280;12865;51.934;10.330;2023-02-19T06:11:49;99125.34;;;6.54;100.00
24762;BME280;12865;51.934;10.330;2023-02-19T06:14:35;99128.81;;;6.44;100.00
24762;BME280;12865;51.934;10.330;2023-02-19T06:17:21;99130.22;;;6.37;100.00
24762;BME280;12865;51.934;10.330;2023-02-19T06:20:07;99130.03;;;6.16;100.00
24762;BME280;12865;51.934;10.330;2023-02-19T06:22:53;99141.25;;;5.96;100.00
24762;BME280;12865;51.934;10.330;2023-02-19T06:25:38;99149.44;;;6.04;100.00
24762;BME280;12865;51.934;10.330;2023-02-19T06:28:24;99149.06;;;5.97;100.00
24762;BME280;12865;51.934;10.330;2023-02-19T06:31:11;99151.50;;;6.00;100.00
24762;BME280;12865;51.934;10.330;2023-02-19T06:33:57;99140.53;;;5.81;100.00
24762;BME280;12865;51.934;10.330;2023-02-19T06:36:42;99172.38;;;5.79;100.00
24762;BME280;12865;51.934;10.330;2023-02-19T06:39:28;99179.38;;;5.68;100.00
24762;BME280;12865;51.934;10.330;2023-02-19T06:42:14;99174.53;;;5.62;100.00
24762;BME280;12865;51.934;10.330;2023-02-19T06:45:00;99176.91;;;5.53;100.00
24762;BME280;12865;51.934;10.330;2023-02-19T06:47:45;99196.09;;;5.68;100.00
24762;BME280;12865;51.934;10.330;2023-02-19T06:50:31;99208.22;;;5.60;100.00
24762;BME280;12865;51.934;10.330;2023-02-19T06:53:17;99214.75;;;5.54;100.00
24762;BME280;12865;51.934;10.330;2023-02-19T06:56:05;99222.56;;;5.56;100.00
24762;BME280;12865;51.934;10.330;2023-02-19T06:58:53;99222.25;;;5.47;100.00
24762;BME280;12865;51.934;10.330;2023-02-19T07:01:39;99231.69;;;5.51;100.00
24762;BME280;12865;51.934;10.330;2023-02-19T07:04:25;99232.31;;;5.42;100.00
24762;BME280;12865;51.934;10.330;2023-02-19T07:07:10;99253.59;;;5.53;100.00
24762;BME280;12865;51.934;10.330;2023-02-19T07:09:56;99256.25;;;5.53;100.00
24762;BME280;12865;51.934;10.330;2023-02-19T07:12:42;99262.16;;;5.44;100.00
24762;BME280;12865;51.934;10.330;2023-02-19T07:15:28;99261.22;;;5.45;100.00
24762;BME280;12865;51.934;10.330;2023-02-19T07:18:13;99272.63;;;5.59;100.00
24762;BME280;12865;51.934;10.330;2023-02-19T07:21:08;99278.44;;;5.51;100.00
24762;BME280;12865;51.934;10.330;2023-02-19T07:23:55;99288.59;;;5.44;100.00
24762;BME280;12865;51.934;10.330;2023-02-19T07:26:41;99288.78;;;5.41;100.00
24762;BME280;12865;51.934;10.330;2023-02-19T07:29:27;99297.38;;;5.58;100.00
24762;BME280;12865;51.934;10.330;2023-02-19T07:32:12;99307.41;;;5.40;100.00
24762;BME280;12865;51.934;10.330;2023-02-19T07:34:58;99313.97;;;5.34;100.00
24762;BME280;12865;51.934;10.330;2023-02-19T07:37:44;99331.84;;;5.31;100.00
24762;BME280;12865;51.934;10.330;2023-02-19T07:40:30;99344.06;;;5.19;100.00
24762;BME280;12865;51.934;10.330;2023-02-19T07:43:15;99353.16;;;5.15;100.00
24762;BME280;12865;51.934;10.330;2023-02-19T07:46:09;99357.81;;;4.85;100.00
24762;BME280;12865;51.934;10.330;2023-02-19T07:48:55;99363.19;;;5.10;100.00
24762;BME280;12865;51.934;10.330;2023-02-19T07:51:41;99365.09;;;4.81;100.00
24762;BME280;12865;51.934;10.330;2023-02-19T07:54:28;99384.19;;;4.72;100.00
24762;BME280;12865;51.934;10.330;2023-02-19T07:57:14;99388.44;;;4.74;100.00
24762;BME280;12865;51.934;10.330;2023-02-19T08:00:02;99394.16;;;4.81;100.00
24762;BME280;12865;51.934;10.330;2023-02-19T08:02:48;99399.22;;;4.57;100.00
24762;BME280;12865;51.934;10.330;2023-02-19T08:05:46;99408.53;;;4.63;100.00
24762;BME280;12865;51.934;10.330;2023-02-19T08:08:34;99418.47;;;4.59;100.00
24762;BME280;12865;51.934;10.330;2023-02-19T08:11:19;99418.66;;;4.28;100.00
24762;BME280;12865;51.934;10.330;2023-02-19T08:14:25;99429.44;;;4.11;100.00
24762;BME280;12865;51.934;10.330;2023-02-19T08:17:11;99439.06;;;4.12;100.00
24762;BME280;12865;51.934;10.330;2023-02-19T08:19:57;99446.69;;;4.16;100.00
24762;BME280;12865;51.934;10.330;2023-02-19T08:22:43;99445.72;;;4.03;100.00
24762;BME280;12865;51.934;10.330;2023-02-19T08:25:28;99446.97;;;3.98;100.00
24762;BME280;12865;51.934;10.330;2023-02-19T08:28:14;99449.75;;;3.94;100.00
24762;BME280;12865;51.934;10.330;2023-02-19T08:31:03;99457.69;;;4.09;100.00
24762;BME280;12865;51.934;10.330;2023-02-19T08:33:49;99466.84;;;4.17;100.00
24762;BME280;12865;51.934;10.330;2023-02-19T08:36:35;99468.47;;;4.20;100.00
24762;BME280;12865;51.934;10.330;2023-02-19T08:39:20;99469.09;;;4.23;100.00
24762;BME280;12865;51.934;10.330;2023-02-19T08:42:06;99483.06;;;4.40;100.00
24762;BME280;12865;51.934;10.330;2023-02-19T08:44:52;99491.06;;;4.38;100.00
24762;BME280;12865;51.934;10.330;2023-02-19T08:47:38;99494.19;;;4.30;100.00
24762;BME280;12865;51.934;10.330;2023-02-19T08:50:24;99497.66;;;4.45;100.00
24762;BME280;12865;51.934;10.330;2023-02-19T08:53:10;99501.63;;;4.38;100.00
24762;BME280;12865;51.934;10.330;2023-02-19T08:55:55;99505.19;;;4.23;100.00
24762;BME280;12865;51.934;10.330;2023-02-19T08:58:42;99507.47;;;4.29;100.00
24762;BME280;12865;51.934;10.330;2023-02-19T09:01:28;99525.47;;;4.37;100.00
24762;BME280;12865;51.934;10.330;2023-02-19T09:04:13;99533.59;;;4.33;100.00
24762;BME280;12865;51.934;10.330;2023-02-19T09:06:59;99534.78;;;4.28;100.00
24762;BME280;12865;51.934;10.330;2023-02-19T09:09:45;99539.59;;;4.35;100.00
24762;BME280;12865;51.934;10.330;2023-02-19T09:12:30;99539.53;;;4.51;100.00
24762;BME280;12865;51.934;10.330;2023-02-19T09:15:17;99528.97;;;4.51;100.00
24762;BME280;12865;51.934;10.330;2023-02-19T09:18:03;99535.19;;;4.64;100.00
24762;BME280;12865;51.934;10.330;2023-02-19T09:20:49;99537.91;;;4.63;100.00
24762;BME280;12865;51.934;10.330;2023-02-19T09:23:35;99542.53;;;4.59;100.00
24762;BME280;12865;51.934;10.330;2023-02-19T09:26:21;99550.00;;;4.67;100.00
24762;BME280;12865;51.934;10.330;2023-02-19T09:29:07;99546.69;;;4.78;100.00
24762;BME280;12865;51.934;10.330;2023-02-19T09:31:57;99543.00;;;4.80;100.00
24762;BME280;12865;51.934;10.330;2023-02-19T09:34:43;99545.34;;;4.85;100.00
24762;BME280;12865;51.934;10.330;2023-02-19T09:37:29;99537.13;;;5.03;100.00
24762;BME280;12865;51.934;10.330;2023-02-19T09:40:15;99546.34;;;5.25;100.00
24762;BME280;12865;51.934;10.330;2023-02-19T09:43:08;99549.41;;;5.45;100.00
24762;BME280;12865;51.934;10.330;2023-02-19T09:49:31;99558.38;;;5.82;100.00
24762;BME280;12865;51.934;10.330;2023-02-19T09:58:04;99579.50;;;6.23;100.00
24762;BME280;12865;51.934;10.330;2023-02-19T10:00:52;99576.97;;;6.47;100.00
24762;BME280;12865;51.934;10.330;2023-02-19T10:03:40;99575.91;;;6.50;100.00
24762;BME280;12865;51.934;10.330;2023-02-19T10:06:28;99587.38;;;6.50;100.00
24762;BME280;12865;51.934;10.330;2023-02-19T10:09:22;99581.59;;;6.31;100.00
24762;BME280;12865;51.934;10.330;2023-02-19T10:12:13;99588.63;;;6.57;100.00
24762;BME280;12865;51.934;10.330;2023-02-19T10:15:14;99599.44;;;6.67;100.00
24762;BME280;12865;51.934;10.330;2023-02-19T10:18:02;99617.34;;;6.51;100.00
24762;BME280;12865;51.934;10.330;2023-02-19T10:20:50;99632.63;;;6.20;100.00
24762;BME280;12865;51.934;10.330;2023-02-19T10:23:38;99645.13;;;6.18;100.00
24762;BME280;12865;51.934;10.330;2023-02-19T10:26:25;99642.38;;;6.20;100.00
24762;BME280;12865;51.934;10.330;2023-02-19T10:29:11;99645.34;;;6.15;100.00
24762;BME280;12865;51.934;10.330;2023-02-19T10:32:23;99651.16;;;6.20;100.00
24762;BME280;12865;51.934;10.330;2023-02-19T10:35:13;99660.66;;;6.10;100.00
24762;BME280;12865;51.934;10.330;2023-02-19T10:38:00;99665.44;;;6.18;100.00
24762;BME280;12865;51.934;10.330;2023-02-19T10:40:46;99665.66;;;6.15;100.00
24762;BME280;12865;51.934;10.330;2023-02-19T10:43:37;99666.38;;;6.17;100.00
24762;BME280;12865;51.934;10.330;2023-02-19T10:46:28;99675.25;;;6.03;100.00
24762;BME280;12865;51.934;10.330;2023-02-19T10:55:23;99694.69;;;6.16;100.00
24762;BME280;12865;51.934;10.330;2023-02-19T10:58:23;99698.75;;;6.35;100.00
24762;BME280;12865;51.934;10.330;2023-02-19T11:01:22;99710.22;;;6.35;100.00
24762;BME280;12865;51.934;10.330;2023-02-19T11:04:16;99723.09;;;6.27;100.00
24762;BME280;12865;51.934;10.330;2023-02-19T11:07:18;99721.34;;;6.13;100.00
24762;BME280;12865;51.934;10.330;2023-02-19T11:10:04;99729.47;;;6.10;100.00
24762;BME280;12865;51.934;10.330;2023-02-19T11:12:57;99718.69;;;6.13;100.00
24762;BME280;12865;51.934;10.330;2023-02-19T11:15:50;99713.81;;;6.07;100.00
24762;BME280;12865;51.934;10.330;2023-02-19T11:18:37;99713.59;;;6.10;100.00
24762;BME280;12865;51.934;10.330;2023-02-19T11:21:28;99708.56;;;6.20;100.00
24762;BME280;12865;51.934;10.330;2023-02-19T11:24:23;99703.94;;;6.23;100.00
24762;BME280;12865;51.934;10.330;2023-02-19T11:27:18;99699.19;;;6.28;100.00
24762;BME280;12865;51.934;10.330;2023-02-19T11:30:31;99708.50;;;6.34;100.00
24762;BME280;12865;51.934;10.330;2023-02-19T11:45:17;99722.75;;;6.19;100.00
24762;BME280;12865;51.934;10.330;2023-02-19T11:53:32;99731.03;;;6.00;100.00
24762;BME280;12865;51.934;10.330;2023-02-19T11:56:31;99724.94;;;6.12;100.00
24762;BME280;12865;51.934;10.330;2023-02-19T12:05:48;99725.81;;;7.04;96.70
24762;BME280;12865;51.934;10.330;2023-02-19T12:08:54;99725.47;;;6.96;95.05
24762;BME280;12865;51.934;10.330;2023-02-19T12:17:46;99731.44;;;6.60;100.00
24762;BME280;12865;51.934;10.330;2023-02-19T12:24:14;99736.81;;;6.86;97.66
24762;BME280;12865;51.934;10.330;2023-02-19T12:27:34;99733.81;;;6.65;98.83
24762;BME280;12865;51.934;10.330;2023-02-19T12:30:58;99736.91;;;6.72;100.00
24762;BME280;12865;51.934;10.330;2023-02-19T12:43:15;99746.63;;;6.58;96.33
24762;BME280;12865;51.934;10.330;2023-02-19T12:46:15;99747.00;;;6.79;93.79
24762;BME280;12865;51.934;10.330;2023-02-19T12:49:11;99742.13;;;6.98;97.25
24762;BME280;12865;51.934;10.330;2023-02-19T12:58:45;99760.56;;;6.87;92.72
24762;BME280;12865;51.934;10.330;2023-02-19T13:02:13;99760.03;;;6.95;92.29
24762;BME280;12865;51.934;10.330;2023-02-19T13:05:01;99769.31;;;6.62;95.77
24762;BME280;12865;51.934;10.330;2023-02-19T13:08:30;99779.31;;;6.84;93.26
24762;BME280;12865;51.934;10.330;2023-02-19T13:11:17;99782.38;;;6.78;94.61
24762;BME280;12865;51.934;10.330;2023-02-19T13:17:28;99785.50;;;6.58;93.99
24762;BME280;12865;51.934;10.330;2023-02-19T13:20:30;99783.69;;;6.85;92.97
24762;BME280;12865;51.934;10.330;2023-02-19T13:23:27;99778.81;;;6.92;92.47
24762;BME280;12865;51.934;10.330;2023-02-19T13:33:17;99785.41;;;7.24;92.32
24762;BME280;12865;51.934;10.330;2023-02-19T13:36:11;99785.94;;;7.29;89.88
24762;BME280;12865;51.934;10.330;2023-02-19T13:38:58;99792.31;;;7.52;88.18
24762;BME280;12865;51.934;10.330;2023-02-19T13:41:52;99791.38;;;7.40;88.71
24762;BME280;12865;51.934;10.330;2023-02-19T13:44:39;99791.91;;;7.45;89.99
24762;BME280;12865;51.934;10.330;2023-02-19T13:47:45;99786.09;;;7.28;89.50
24762;BME280;12865;51.934;10.330;2023-02-19T13:50:33;99788.91;;;7.12;87.63
24762;BME280;12865;51.934;10.330;2023-02-19T13:59:34;99781.28;;;7.20;91.24
24762;BME280;12865;51.934;10.330;2023-02-19T14:05:09;99779.50;;;7.21;85.51
24762;BME280;12865;51.934;10.330;2023-02-19T14:07:55;99778.66;;;7.33;87.26
24762;BME280;12865;51.934;10.330;2023-02-19T14:10:53;99777.78;;;7.20;89.35
24762;BME280;12865;51.934;10.330;2023-02-19T14:25:43;99782.19;;;6.94;90.85
24762;BME280;12865;51.934;10.330;2023-02-19T14:28:36;99775.84;;;6.96;90.51
24762;BME280;12865;51.934;10.330;2023-02-19T14:31:25;99774.06;;;7.09;91.35
24762;BME280;12865;51.934;10.330;2023-02-19T14:34:17;99792.19;;;7.03;89.91
24762;BME280;12865;51.934;10.330;2023-02-19T14:37:16;99779.25;;;7.24;89.43
24762;BME280;12865;51.934;10.330;2023-02-19T14:40:04;99787.44;;;7.21;88.66
24762;BME280;12865;51.934;10.330;2023-02-19T14:42:52;99780.34;;;7.21;87.24
24762;BME280;12865;51.934;10.330;2023-02-19T14:45:43;99779.50;;;7.21;86.21
24762;BME280;12865;51.934;10.330;2023-02-19T14:48:32;99792.63;;;7.09;86.51
24762;BME280;12865;51.934;10.330;2023-02-19T14:51:35;99799.84;;;7.07;85.84
24762;BME280;12865;51.934;10.330;2023-02-19T14:54:43;99800.47;;;7.11;85.70
24762;BME280;12865;51.934;10.330;2023-02-19T14:57:37;99809.88;;;6.90;86.58
24762;BME280;12865;51.934;10.330;2023-02-19T15:00:26;99816.44;;;6.84;87.43
24762;BME280;12865;51.934;10.330;2023-02-19T15:03:31;99814.53;;;6.86;87.96
24762;BME280;12865;51.934;10.330;2023-02-19T15:06:17;99810.59;;;6.79;89.04
24762;BME280;12865;51.934;10.330;2023-02-19T15:09:05;99818.16;;;6.58;88.13
24762;BME280;12865;51.934;10.330;2023-02-19T15:11:52;99813.84;;;6.70;87.63
24762;BME280;12865;51.934;10.330;2023-02-19T15:14:39;99818.81;;;6.75;89.05
24762;BME280;12865;51.934;10.330;2023-02-19T15:17:27;99816.44;;;6.84;87.11
24762;BME280;12865;51.934;10.330;2023-02-19T15:20:21;99818.38;;;6.68;85.89
24762;BME280;12865;51.934;10.330;2023-02-19T15:23:07;99813.16;;;6.66;87.62
24762;BME280;12865;51.934;10.330;2023-02-19T15:25:53;99816.91;;;6.64;85.41
24762;BME280;12865;51.934;10.330;2023-02-19T15:28:39;99816.00;;;6.51;84.26
24762;BME280;12865;51.934;10.330;2023-02-19T15:31:24;99809.56;;;6.41;85.16
24762;BME280;12865;51.934;10.330;2023-02-19T15:34:25;99817.22;;;6.45;86.44
24762;BME280;12865;51.934;10.330;2023-02-19T15:37:11;99814.84;;;6.55;85.81
24762;BME280;12865;51.934;10.330;2023-02-19T15:40:00;99816.75;;;6.39;86.37
24762;BME280;12865;51.934;10.330;2023-02-19T15:42:47;99821.06;;;6.54;86.50
24762;BME280;12865;51.934;10.330;2023-02-19T15:45:40;99819.41;;;6.39;88.46
24762;BME280;12865;51.934;10.330;2023-02-19T15:48:45;99816.53;;;6.29;90.44
24762;BME280;12865;51.934;10.330;2023-02-19T15:51:54;99816.63;;;6.27;91.58
24762;BME280;12865;51.934;10.330;2023-02-19T15:55:17;99816.22;;;6.34;90.75
24762;BME280;12865;51.934;10.330;2023-02-19T15:58:23;99812.66;;;6.20;92.15
24762;BME280;12865;51.934;10.330;2023-02-19T16:04:00;99805.88;;;6.16;93.96
24762;BME280;12865;51.934;10.330;2023-02-19T16:06:55;99806.16;;;6.12;94.53
24762;BME280;12865;51.934;10.330;2023-02-19T16:09:41;99800.75;;;6.13;94.55
24762;BME280;12865;51.934;10.330;2023-02-19T16:12:27;99800.84;;;6.12;96.01
24762;BME280;12865;51.934;10.330;2023-02-19T16:15:13;99804.75;;;6.06;96.67
24762;BME280;12865;51.934;10.330;2023-02-19T16:17:59;99802.56;;;5.99;95.50
24762;BME280;12865;51.934;10.330;2023-02-19T16:20:46;99794.94;;;5.94;95.50
24762;BME280;12865;51.934;10.330;2023-02-19T16:23:32;99800.63;;;5.88;95.31
24762;BME280;12865;51.934;10.330;2023-02-19T16:26:18;99800.78;;;5.71;95.38
24762;BME280;12865;51.934;10.330;2023-02-19T16:29:04;99805.28;;;5.69;97.35
24762;BME280;12865;51.934;10.330;2023-02-19T16:32:03;99806.75;;;5.60;98.66
24762;BME280;12865;51.934;10.330;2023-02-19T16:34:50;99814.94;;;5.56;100.00
24762;BME280;12865;51.934;10.330;2023-02-19T16:37:54;99818.91;;;5.48;100.00
24762;BME280;12865;51.934;10.330;2023-02-19T16:43:40;99834.25;;;5.28;100.00
24762;BME280;12865;51.934;10.330;2023-02-19T16:46:28;99843.78;;;5.16;100.00
24762;BME280;12865;51.934;10.330;2023-02-19T16:49:13;99844.06;;;5.11;100.00
24762;BME280;12865;51.934;10.330;2023-02-19T16:52:00;99842.50;;;5.07;100.00